sensor_id;sensor_type;location;lat;lon;timestamp;temperature;humidity
1800;DHT22;919;48.274;12.292;2022-10-16T00:01:38;13.60;99.90
1800;DHT22;919;48.274;12.292;2022-10-16T00:04:05;13.70;99.90
1800;DHT22;919;48.274;12.292;2022-10-16T00:06:32;13.60;99.90
1800;DHT22;919;48.274;12.292;2022-10-16T00:08:59;13.60;99.90
1800;DHT22;919;48.274;12.292;2022-10-16T00:11:29;13.60;99.90
1800;DHT22;919;48.274;12.292;2022-10-16T00:13:58;13.50;99.90
1800;DHT22;919;48.274;12.292;2022-10-16T00:16:25;13.40;99.90
1800;DHT22;919;48.274;12.292;2022-10-16T00:18:52;13.30;99.90
1800;DHT22;919;48.274;12.292;2022-10-16T00:21:23;13.20;99.90
1800;DHT22;919;48.274;12.292;2022-10-16T00:23:51;13.10;99.90
1800;DHT22;919;48.274;12.292;2022-10-16T00:26:18;13.00;99.90
1800;DHT22;919;48.274;12.292;2022-10-16T00:28:47;13.00;99.90
1800;DHT22;919;48.274;12.292;2022-10-16T00:31:15;12.90;99.90
1800;DHT22;919;48.274;12.292;2022-10-16T00:33:43;12.90;99.90
1800;DHT22;919;48.274;12.292;2022-10-16T00:36:11;12.90;99.90
1800;DHT22;919;48.274;12.292;2022-10-16T00:38:38;12.90;99.90
1800;DHT22;919;48.274;12.292;2022-10-16T00:41:06;12.80;99.90
1800;DHT22;919;48.274;12.292;2022-10-16T00:43:36;12.80;99.90
1800;DHT22;919;48.274;12.292;2022-10-16T00:46:13;12.80;99.90
1800;DHT22;919;48.274;12.292;2022-10-16T00:48:43;12.80;99.90
1800;DHT22;919;48.274;12.292;2022-10-16T00:51:11;12.70;99.90
1800;DHT22;919;48.274;12.292;2022-10-16T00:53:38;12.70;99.90
1800;DHT22;919;48.274;12.292;2022-10-16T00:56:06;12.60;99.90
1800;DHT22;919;48.274;12.292;2022-10-16T00:58:33;12.60;99.90
1800;DHT22;919;48.274;12.292;2022-10-16T01:00:59;12.50;99.90
1800;DHT22;919;48.274;12.292;2022-10-16T01:03:30;12.40;99.90
1800;DHT22;919;48.274;12.292;2022-10-16T01:06:07;12.40;99.90
1800;DHT22;919;48.274;12.292;2022-10-16T01:08:46;12.30;99.90
1800;DHT22;919;48.274;12.292;2022-10-16T01:11:21;12.20;99.90
1800;DHT22;919;48.274;12.292;2022-10-16T01:13:54;12.10;99.90
1800;DHT22;919;48.274;12.292;2022-10-16T01:16:28;12.00;99.90
1800;DHT22;919;48.274;12.292;2022-10-16T01:19:02;11.90;99.90
1800;DHT22;919;48.274;12.292;2022-10-16T01:21:36;11.90;99.90
1800;DHT22;919;48.274;12.292;2022-10-16T01:24:09;11.80;99.90
1800;DHT22;919;48.274;12.292;2022-10-16T01:29:50;11.80;99.90
1800;DHT22;919;48.274;12.292;2022-10-16T01:32:23;11.70;99.90
1800;DHT22;919;48.274;12.292;2022-10-16T01:34:53;11.70;99.90
1800;DHT22;919;48.274;12.292;2022-10-16T01:37:29;11.70;99.90
1800;DHT22;919;48.274;12.292;2022-10-16T01:39:59;11.70;99.90
1800;DHT22;919;48.274;12.292;2022-10-16T01:42:30;11.70;99.90
1800;DHT22;919;48.274;12.292;2022-10-16T01:45:01;11.70;99.90
1800;DHT22;919;48.274;12.292;2022-10-16T01:47:30;11.70;99.90
1800;DHT22;919;48.274;12.292;2022-10-16T01:49:58;11.70;99.90
1800;DHT22;919;48.274;12.292;2022-10-16T01:52:28;11.80;99.90
1800;DHT22;919;48.274;12.292;2022-10-16T01:54:56;11.80;99.90
1800;DHT22;919;48.274;12.292;2022-10-16T01:57:24;11.80;99.90
1800;DHT22;919;48.274;12.292;2022-10-16T01:59:55;11.80;99.90
1800;DHT22;919;48.274;12.292;2022-10-16T02:02:27;11.80;99.90
1800;DHT22;919;48.274;12.292;2022-10-16T02:04:58;11.80;99.90
1800;DHT22;919;48.274;12.292;2022-10-16T02:07:25;11.70;99.90
1800;DHT22;919;48.274;12.292;2022-10-16T02:09:52;11.70;99.90
1800;DHT22;919;48.274;12.292;2022-10-16T02:12:22;11.70;99.90
1800;DHT22;919;48.274;12.292;2022-10-16T02:14:50;11.60;99.90
1800;DHT22;919;48.274;12.292;2022-10-16T02:17:18;11.60;99.90
1800;DHT22;919;48.274;12.292;2022-10-16T02:19:48;11.60;99.90
1800;DHT22;919;48.274;12.292;2022-10-16T02:22:19;11.60;99.90
1800;DHT22;919;48.274;12.292;2022-10-16T02:24:54;11.60;99.90
1800;DHT22;919;48.274;12.292;2022-10-16T02:27:25;11.60;99.90
1800;DHT22;919;48.274;12.292;2022-10-16T02:29:57;11.60;99.90
1800;DHT22;919;48.274;12.292;2022-10-16T02:32:30;11.50;99.90
1800;DHT22;919;48.274;12.292;2022-10-16T02:34:59;11.50;99.90
1800;DHT22;919;48.274;12.292;2022-10-16T02:37:28;11.50;99.90
1800;DHT22;919;48.274;12.292;2022-10-16T02:39:56;11.60;99.90
1800;DHT22;919;48.274;12.292;2022-10-16T02:42:28;11.60;99.90
1800;DHT22;919;48.274;12.292;2022-10-16T02:44:56;11.50;99.90
1800;DHT22;919;48.274;12.292;2022-10-16T02:47:23;11.50;99.90
1800;DHT22;919;48.274;12.292;2022-10-16T02:49:50;11.40;99.90
1800;DHT22;919;48.274;12.292;2022-10-16T02:52:18;11.40;99.90
1800;DHT22;919;48.274;12.292;2022-10-16T02:54:45;11.30;99.90
1800;DHT22;919;48.274;12.292;2022-10-16T02:57:11;11.20;99.90
1800;DHT22;919;48.274;12.292;2022-10-16T02:59:38;11.10;99.90
1800;DHT22;919;48.274;12.292;2022-10-16T03:02:05;11.10;99.90
1800;DHT22;919;48.274;12.292;2022-10-16T03:04:32;11.10;99.90
1800;DHT22;919;48.274;12.292;2022-10-16T03:07:19;11.00;99.90
1800;DHT22;919;48.274;12.292;2022-10-16T03:09:45;11.10;99.90
1800;DHT22;919;48.274;12.292;2022-10-16T03:12:13;11.10;99.90
1800;DHT22;919;48.274;12.292;2022-10-16T03:14:39;11.10;99.90
1800;DHT22;919;48.274;12.292;2022-10-16T03:17:06;11.20;99.90
1800;DHT22;919;48.274;12.292;2022-10-16T03:19:33;11.20;99.90
1800;DHT22;919;48.274;12.292;2022-10-16T03:22:00;11.20;99.90
1800;DHT22;919;48.274;12.292;2022-10-16T03:24:28;11.10;99.90
1800;DHT22;919;48.274;12.292;2022-10-16T03:26:55;11.00;99.90
1800;DHT22;919;48.274;12.292;2022-10-16T03:29:21;11.00;99.90
1800;DHT22;919;48.274;12.292;2022-10-16T03:31:48;11.10;99.90
1800;DHT22;919;48.274;12.292;2022-10-16T03:34:15;11.00;99.90
1800;DHT22;919;48.274;12.292;2022-10-16T03:36:42;10.90;99.90
1800;DHT22;919;48.274;12.292;2022-10-16T03:39:09;10.80;99.90
1800;DHT22;919;48.274;12.292;2022-10-16T03:41:37;10.70;99.90
1800;DHT22;919;48.274;12.292;2022-10-16T03:44:04;10.70;99.90
1800;DHT22;919;48.274;12.292;2022-10-16T03:46:31;10.60;99.90
1800;DHT22;919;48.274;12.292;2022-10-16T03:48:58;10.60;99.90
1800;DHT22;919;48.274;12.292;2022-10-16T03:51:24;10.60;99.90
1800;DHT22;919;48.274;12.292;2022-10-16T03:53:51;10.60;99.90
1800;DHT22;919;48.274;12.292;2022-10-16T03:56:18;10.50;99.90
1800;DHT22;919;48.274;12.292;2022-10-16T03:58:46;10.50;99.90
1800;DHT22;919;48.274;12.292;2022-10-16T04:01:13;10.50;99.90
1800;DHT22;919;48.274;12.292;2022-10-16T04:03:40;10.60;99.90
1800;DHT22;919;48.274;12.292;2022-10-16T04:06:07;10.60;99.90
1800;DHT22;919;48.274;12.292;2022-10-16T04:08:34;10.50;99.90
1800;DHT22;919;48.274;12.292;2022-10-16T04:11:02;10.60;99.90
1800;DHT22;919;48.274;12.292;2022-10-16T04:13:29;10.60;99.90
1800;DHT22;919;48.274;12.292;2022-10-16T04:15:57;10.60;99.90
1800;DHT22;919;48.274;12.292;2022-10-16T04:18:24;10.60;99.90
1800;DHT22;919;48.274;12.292;2022-10-16T04:20:52;10.60;99.90
1800;DHT22;919;48.274;12.292;2022-10-16T04:23:19;10.60;99.90
1800;DHT22;919;48.274;12.292;2022-10-16T04:25:46;10.70;99.90
1800;DHT22;919;48.274;12.292;2022-10-16T04:28:13;10.70;99.90
1800;DHT22;919;48.274;12.292;2022-10-16T04:30:40;10.80;99.90
1800;DHT22;919;48.274;12.292;2022-10-16T04:33:09;10.80;99.90
1800;DHT22;919;48.274;12.292;2022-10-16T04:35:36;10.70;99.90
1800;DHT22;919;48.274;12.292;2022-10-16T04:38:03;10.70;99.90
1800;DHT22;919;48.274;12.292;2022-10-16T04:40:29;10.70;99.90
1800;DHT22;919;48.274;12.292;2022-10-16T04:42:58;10.70;99.90
1800;DHT22;919;48.274;12.292;2022-10-16T04:45:25;10.70;99.90
1800;DHT22;919;48.274;12.292;2022-10-16T04:47:51;10.80;99.90
1800;DHT22;919;48.274;12.292;2022-10-16T04:50:20;10.80;99.90
1800;DHT22;919;48.274;12.292;2022-10-16T04:52:46;10.90;99.90
1800;DHT22;919;48.274;12.292;2022-10-16T04:55:13;10.90;99.90
1800;DHT22;919;48.274;12.292;2022-10-16T04:57:40;10.90;99.90
1800;DHT22;919;48.274;12.292;2022-10-16T05:00:08;11.00;99.90
1800;DHT22;919;48.274;12.292;2022-10-16T05:02:35;11.00;99.90
1800;DHT22;919;48.274;12.292;2022-10-16T05:05:02;11.10;99.90
1800;DHT22;919;48.274;12.292;2022-10-16T05:07:30;11.10;99.90
1800;DHT22;919;48.274;12.292;2022-10-16T05:09:57;11.10;99.90
1800;DHT22;919;48.274;12.292;2022-10-16T05:12:24;11.10;99.90
1800;DHT22;919;48.274;12.292;2022-10-16T05:14:51;11.10;99.90
1800;DHT22;919;48.274;12.292;2022-10-16T05:17:17;11.10;99.90
1800;DHT22;919;48.274;12.292;2022-10-16T05:19:44;11.10;99.90
1800;DHT22;919;48.274;12.292;2022-10-16T05:22:11;11.10;99.90
1800;DHT22;919;48.274;12.292;2022-10-16T05:24:39;11.20;99.90
1800;DHT22;919;48.274;12.292;2022-10-16T05:27:06;11.20;99.90
1800;DHT22;919;48.274;12.292;2022-10-16T05:29:33;11.20;99.90
1800;DHT22;919;48.274;12.292;2022-10-16T05:32:00;11.20;99.90
1800;DHT22;919;48.274;12.292;2022-10-16T05:34:27;11.10;99.90
1800;DHT22;919;48.274;12.292;2022-10-16T05:36:54;11.20;99.90
1800;DHT22;919;48.274;12.292;2022-10-16T05:39:20;11.20;99.90
1800;DHT22;919;48.274;12.292;2022-10-16T05:41:49;11.20;99.90
1800;DHT22;919;48.274;12.292;2022-10-16T05:44:17;11.30;99.90
1800;DHT22;919;48.274;12.292;2022-10-16T05:46:46;11.30;99.90
1800;DHT22;919;48.274;12.292;2022-10-16T05:49:13;11.40;99.90
1800;DHT22;919;48.274;12.292;2022-10-16T05:51:40;11.60;99.90
1800;DHT22;919;48.274;12.292;2022-10-16T05:54:06;11.60;99.90
1800;DHT22;919;48.274;12.292;2022-10-16T05:56:33;11.60;99.90
1800;DHT22;919;48.274;12.292;2022-10-16T05:59:03;11.60;99.90
1800;DHT22;919;48.274;12.292;2022-10-16T06:01:30;11.70;99.90
1800;DHT22;919;48.274;12.292;2022-10-16T06:03:57;11.80;99.90
1800;DHT22;919;48.274;12.292;2022-10-16T06:06:26;11.90;99.90
1800;DHT22;919;48.274;12.292;2022-10-16T06:08:54;12.00;99.90
1800;DHT22;919;48.274;12.292;2022-10-16T06:11:23;12.00;99.90
1800;DHT22;919;48.274;12.292;2022-10-16T06:13:51;12.00;99.90
1800;DHT22;919;48.274;12.292;2022-10-16T06:16:19;12.00;99.90
1800;DHT22;919;48.274;12.292;2022-10-16T06:18:47;12.00;99.90
1800;DHT22;919;48.274;12.292;2022-10-16T06:21:16;12.00;99.90
1800;DHT22;919;48.274;12.292;2022-10-16T06:23:44;12.00;99.90
1800;DHT22;919;48.274;12.292;2022-10-16T06:26:12;12.10;99.90
1800;DHT22;919;48.274;12.292;2022-10-16T06:28:39;12.10;99.90
1800;DHT22;919;48.274;12.292;2022-10-16T06:31:07;12.20;99.90
1800;DHT22;919;48.274;12.292;2022-10-16T06:33:36;12.20;99.90
1800;DHT22;919;48.274;12.292;2022-10-16T06:36:05;12.20;99.90
1800;DHT22;919;48.274;12.292;2022-10-16T06:38:32;12.20;99.90
1800;DHT22;919;48.274;12.292;2022-10-16T06:40:59;12.30;99.90
1800;DHT22;919;48.274;12.292;2022-10-16T06:43:28;12.30;99.90
1800;DHT22;919;48.274;12.292;2022-10-16T06:45:58;12.40;99.90
1800;DHT22;919;48.274;12.292;2022-10-16T06:48:26;12.40;99.90
1800;DHT22;919;48.274;12.292;2022-10-16T06:50:58;12.50;99.90
1800;DHT22;919;48.274;12.292;2022-10-16T06:53:26;12.50;99.90
1800;DHT22;919;48.274;12.292;2022-10-16T06:55:53;12.60;99.90
1800;DHT22;919;48.274;12.292;2022-10-16T06:58:21;12.50;99.90
1800;DHT22;919;48.274;12.292;2022-10-16T07:00:48;12.60;99.90
1800;DHT22;919;48.274;12.292;2022-10-16T07:03:15;12.60;99.90
1800;DHT22;919;48.274;12.292;2022-10-16T07:05:43;12.60;99.90
1800;DHT22;919;48.274;12.292;2022-10-16T07:08:11;12.60;99.90
1800;DHT22;919;48.274;12.292;2022-10-16T07:10:38;12.60;99.90
1800;DHT22;919;48.274;12.292;2022-10-16T07:13:05;12.60;99.90
1800;DHT22;919;48.274;12.292;2022-10-16T07:15:33;12.70;99.90
1800;DHT22;919;48.274;12.292;2022-10-16T07:18:00;12.80;99.90
1800;DHT22;919;48.274;12.292;2022-10-16T07:20:27;12.80;99.90
1800;DHT22;919;48.274;12.292;2022-10-16T07:22:54;12.80;99.90
1800;DHT22;919;48.274;12.292;2022-10-16T07:25:22;12.90;99.90
1800;DHT22;919;48.274;12.292;2022-10-16T07:27:49;12.80;99.90
1800;DHT22;919;48.274;12.292;2022-10-16T07:30:16;12.90;99.90
1800;DHT22;919;48.274;12.292;2022-10-16T07:32:43;12.90;99.90
1800;DHT22;919;48.274;12.292;2022-10-16T07:35:10;13.00;99.90
1800;DHT22;919;48.274;12.292;2022-10-16T07:37:36;13.00;99.90
1800;DHT22;919;48.274;12.292;2022-10-16T07:40:04;13.00;99.90
1800;DHT22;919;48.274;12.292;2022-10-16T07:42:33;13.00;99.90
1800;DHT22;919;48.274;12.292;2022-10-16T07:44:59;13.10;99.90
1800;DHT22;919;48.274;12.292;2022-10-16T07:47:26;13.20;99.90
1800;DHT22;919;48.274;12.292;2022-10-16T07:49:53;13.30;99.90
1800;DHT22;919;48.274;12.292;2022-10-16T07:52:20;13.30;99.90
1800;DHT22;919;48.274;12.292;2022-10-16T07:54:46;13.40;99.90
1800;DHT22;919;48.274;12.292;2022-10-16T07:57:13;13.50;99.90
1800;DHT22;919;48.274;12.292;2022-10-16T07:59:46;13.50;99.90
1800;DHT22;919;48.274;12.292;2022-10-16T08:02:12;13.50;99.90
1800;DHT22;919;48.274;12.292;2022-10-16T08:04:39;13.50;99.90
1800;DHT22;919;48.274;12.292;2022-10-16T08:07:07;13.60;99.90
1800;DHT22;919;48.274;12.292;2022-10-16T08:09:34;13.60;99.90
1800;DHT22;919;48.274;12.292;2022-10-16T08:12:01;13.70;99.90
1800;DHT22;919;48.274;12.292;2022-10-16T08:14:29;13.80;99.90
1800;DHT22;919;48.274;12.292;2022-10-16T08:16:57;14.00;99.90
1800;DHT22;919;48.274;12.292;2022-10-16T08:19:24;14.10;99.90
1800;DHT22;919;48.274;12.292;2022-10-16T08:21:51;14.30;99.90
1800;DHT22;919;48.274;12.292;2022-10-16T08:24:18;14.40;99.90
1800;DHT22;919;48.274;12.292;2022-10-16T08:26:45;14.50;99.90
1800;DHT22;919;48.274;12.292;2022-10-16T08:29:13;14.70;99.90
1800;DHT22;919;48.274;12.292;2022-10-16T08:31:40;14.80;99.90
1800;DHT22;919;48.274;12.292;2022-10-16T08:34:08;15.00;99.90
1800;DHT22;919;48.274;12.292;2022-10-16T08:36:35;15.20;99.90
1800;DHT22;919;48.274;12.292;2022-10-16T08:39:02;15.20;99.90
1800;DHT22;919;48.274;12.292;2022-10-16T08:42:02;15.40;99.90
1800;DHT22;919;48.274;12.292;2022-10-16T08:44:58;15.40;99.90
1800;DHT22;919;48.274;12.292;2022-10-16T08:47:39;15.30;99.90
1800;DHT22;919;48.274;12.292;2022-10-16T08:50:13;15.30;99.90
1800;DHT22;919;48.274;12.292;2022-10-16T08:52:42;15.40;99.90
1800;DHT22;919;48.274;12.292;2022-10-16T08:55:19;15.60;99.90
1800;DHT22;919;48.274;12.292;2022-10-16T08:57:50;15.80;99.90
1800;DHT22;919;48.274;12.292;2022-10-16T09:00:17;16.00;99.90
1800;DHT22;919;48.274;12.292;2022-10-16T09:02:49;16.00;99.90
1800;DHT22;919;48.274;12.292;2022-10-16T09:05:25;16.20;99.90
1800;DHT22;919;48.274;12.292;2022-10-16T09:08:06;16.40;99.90
1800;DHT22;919;48.274;12.292;2022-10-16T09:10:42;16.70;99.90
1800;DHT22;919;48.274;12.292;2022-10-16T09:13:18;16.90;99.90
1800;DHT22;919;48.274;12.292;2022-10-16T09:15:52;17.20;99.90
1800;DHT22;919;48.274;12.292;2022-10-16T09:18:25;17.40;99.90
1800;DHT22;919;48.274;12.292;2022-10-16T09:21:01;17.50;99.90
1800;DHT22;919;48.274;12.292;2022-10-16T09:23:34;17.60;99.90
1800;DHT22;919;48.274;12.292;2022-10-16T09:26:03;17.70;99.90
1800;DHT22;919;48.274;12.292;2022-10-16T09:28:31;17.90;99.90
1800;DHT22;919;48.274;12.292;2022-10-16T09:30:58;18.00;99.90
1800;DHT22;919;48.274;12.292;2022-10-16T09:33:29;18.10;99.90
1800;DHT22;919;48.274;12.292;2022-10-16T09:35:58;18.20;99.90
1800;DHT22;919;48.274;12.292;2022-10-16T09:38:27;18.30;99.90
1800;DHT22;919;48.274;12.292;2022-10-16T09:40:55;18.50;99.90
1800;DHT22;919;48.274;12.292;2022-10-16T09:43:24;18.70;99.90
1800;DHT22;919;48.274;12.292;2022-10-16T09:45:54;18.80;99.90
1800;DHT22;919;48.274;12.292;2022-10-16T09:48:22;19.00;99.90
1800;DHT22;919;48.274;12.292;2022-10-16T09:50:57;19.30;99.90
1800;DHT22;919;48.274;12.292;2022-10-16T09:53:26;19.40;99.90
1800;DHT22;919;48.274;12.292;2022-10-16T09:56:03;19.40;99.90
1800;DHT22;919;48.274;12.292;2022-10-16T09:58:32;19.50;99.90
1800;DHT22;919;48.274;12.292;2022-10-16T10:01:00;19.60;99.90
1800;DHT22;919;48.274;12.292;2022-10-16T10:03:38;19.70;99.90
1800;DHT22;919;48.274;12.292;2022-10-16T10:06:18;19.90;99.90
1800;DHT22;919;48.274;12.292;2022-10-16T10:08:55;20.00;99.90
1800;DHT22;919;48.274;12.292;2022-10-16T10:11:43;20.10;99.90
1800;DHT22;919;48.274;12.292;2022-10-16T10:14:24;20.20;99.90
1800;DHT22;919;48.274;12.292;2022-10-16T10:16:52;20.30;99.90
1800;DHT22;919;48.274;12.292;2022-10-16T10:19:21;20.40;99.90
1800;DHT22;919;48.274;12.292;2022-10-16T10:21:50;20.40;99.90
1800;DHT22;919;48.274;12.292;2022-10-16T10:24:19;20.50;99.90
1800;DHT22;919;48.274;12.292;2022-10-16T10:26:54;20.60;99.90
1800;DHT22;919;48.274;12.292;2022-10-16T10:29:31;20.70;99.90
1800;DHT22;919;48.274;12.292;2022-10-16T10:32:07;20.80;99.90
1800;DHT22;919;48.274;12.292;2022-10-16T10:34:46;20.90;99.90
1800;DHT22;919;48.274;12.292;2022-10-16T10:37:35;20.80;99.90
1800;DHT22;919;48.274;12.292;2022-10-16T10:40:12;20.70;99.90
1800;DHT22;919;48.274;12.292;2022-10-16T10:42:48;20.70;99.90
1800;DHT22;919;48.274;12.292;2022-10-16T10:45:24;20.70;99.90
1800;DHT22;919;48.274;12.292;2022-10-16T10:48:05;20.70;99.90
1800;DHT22;919;48.274;12.292;2022-10-16T10:50:41;20.80;99.90
1800;DHT22;919;48.274;12.292;2022-10-16T10:53:18;20.90;99.90
1800;DHT22;919;48.274;12.292;2022-10-16T10:55:54;21.20;99.90
1800;DHT22;919;48.274;12.292;2022-10-16T10:58:51;21.50;99.90
1800;DHT22;919;48.274;12.292;2022-10-16T11:01:26;21.80;99.90
1800;DHT22;919;48.274;12.292;2022-10-16T11:04:26;21.90;99.90
1800;DHT22;919;48.274;12.292;2022-10-16T11:06:59;22.10;99.90
1800;DHT22;919;48.274;12.292;2022-10-16T11:09:33;22.30;99.90
1800;DHT22;919;48.274;12.292;2022-10-16T11:12:07;22.10;99.90
1800;DHT22;919;48.274;12.292;2022-10-16T11:14:43;22.10;99.90
1800;DHT22;919;48.274;12.292;2022-10-16T11:17:14;22.10;99.90
1800;DHT22;919;48.274;12.292;2022-10-16T11:19:47;22.10;99.90
1800;DHT22;919;48.274;12.292;2022-10-16T11:22:19;22.10;99.90
1800;DHT22;919;48.274;12.292;2022-10-16T11:24:54;22.10;99.90
1800;DHT22;919;48.274;12.292;2022-10-16T11:27:33;22.10;99.90
1800;DHT22;919;48.274;12.292;2022-10-16T11:30:05;22.40;99.90
1800;DHT22;919;48.274;12.292;2022-10-16T11:32:40;22.70;99.90
1800;DHT22;919;48.274;12.292;2022-10-16T11:35:17;23.10;99.90
1800;DHT22;919;48.274;12.292;2022-10-16T11:37:46;23.30;99.90
1800;DHT22;919;48.274;12.292;2022-10-16T11:40:22;23.50;99.90
1800;DHT22;919;48.274;12.292;2022-10-16T11:42:54;23.60;99.90
1800;DHT22;919;48.274;12.292;2022-10-16T11:45:29;23.80;99.90
1800;DHT22;919;48.274;12.292;2022-10-16T11:48:01;23.80;99.90
1800;DHT22;919;48.274;12.292;2022-10-16T11:50:34;23.70;99.90
1800;DHT22;919;48.274;12.292;2022-10-16T11:53:08;23.80;99.90
1800;DHT22;919;48.274;12.292;2022-10-16T11:55:41;24.10;99.90
1800;DHT22;919;48.274;12.292;2022-10-16T11:58:15;24.10;99.90
1800;DHT22;919;48.274;12.292;2022-10-16T12:00:51;24.20;99.90
1800;DHT22;919;48.274;12.292;2022-10-16T12:03:22;24.10;99.90
1800;DHT22;919;48.274;12.292;2022-10-16T12:06:06;24.20;99.90
1800;DHT22;919;48.274;12.292;2022-10-16T12:08:37;24.30;99.90
1800;DHT22;919;48.274;12.292;2022-10-16T12:11:20;24.30;99.90
1800;DHT22;919;48.274;12.292;2022-10-16T12:13:48;24.30;99.90
1800;DHT22;919;48.274;12.292;2022-10-16T12:16:22;24.30;99.90
1800;DHT22;919;48.274;12.292;2022-10-16T12:18:49;24.50;99.90
1800;DHT22;919;48.274;12.292;2022-10-16T12:21:17;24.60;99.90
1800;DHT22;919;48.274;12.292;2022-10-16T12:23:49;24.50;99.90
1800;DHT22;919;48.274;12.292;2022-10-16T12:26:25;24.60;99.90
1800;DHT22;919;48.274;12.292;2022-10-16T12:28:53;24.50;99.90
1800;DHT22;919;48.274;12.292;2022-10-16T12:31:20;24.70;99.90
1800;DHT22;919;48.274;12.292;2022-10-16T12:33:58;24.80;99.90
1800;DHT22;919;48.274;12.292;2022-10-16T12:36:28;24.90;99.90
1800;DHT22;919;48.274;12.292;2022-10-16T12:38:55;25.10;99.90
1800;DHT22;919;48.274;12.292;2022-10-16T12:41:28;25.20;99.90
1800;DHT22;919;48.274;12.292;2022-10-16T12:43:56;25.20;99.90
1800;DHT22;919;48.274;12.292;2022-10-16T12:46:38;25.20;99.90
1800;DHT22;919;48.274;12.292;2022-10-16T12:49:19;25.00;99.90
1800;DHT22;919;48.274;12.292;2022-10-16T12:51:47;24.90;99.90
1800;DHT22;919;48.274;12.292;2022-10-16T12:54:15;24.90;99.90
1800;DHT22;919;48.274;12.292;2022-10-16T12:56:51;24.90;99.90
1800;DHT22;919;48.274;12.292;2022-10-16T12:59:29;24.90;99.90
1800;DHT22;919;48.274;12.292;2022-10-16T13:02:08;25.00;99.90
1800;DHT22;919;48.274;12.292;2022-10-16T13:05:01;24.80;99.90
1800;DHT22;919;48.274;12.292;2022-10-16T13:07:53;25.00;99.90
1800;DHT22;919;48.274;12.292;2022-10-16T13:10:26;25.00;99.90
1800;DHT22;919;48.274;12.292;2022-10-16T13:13:26;25.00;99.90
1800;DHT22;919;48.274;12.292;2022-10-16T13:16:06;24.90;99.90
1800;DHT22;919;48.274;12.292;2022-10-16T13:18:43;24.90;99.90
1800;DHT22;919;48.274;12.292;2022-10-16T13:21:23;24.80;99.90
1800;DHT22;919;48.274;12.292;2022-10-16T13:23:56;24.80;99.90
1800;DHT22;919;48.274;12.292;2022-10-16T13:26:34;25.00;99.90
1800;DHT22;919;48.274;12.292;2022-10-16T13:29:05;25.00;99.90
1800;DHT22;919;48.274;12.292;2022-10-16T13:31:32;25.10;99.90
1800;DHT22;919;48.274;12.292;2022-10-16T13:34:00;25.20;99.90
1800;DHT22;919;48.274;12.292;2022-10-16T13:36:28;25.30;99.90
1800;DHT22;919;48.274;12.292;2022-10-16T13:39:10;25.20;99.90
1800;DHT22;919;48.274;12.292;2022-10-16T13:41:38;25.30;99.90
1800;DHT22;919;48.274;12.292;2022-10-16T13:44:12;25.30;99.90
1800;DHT22;919;48.274;12.292;2022-10-16T13:46:40;25.10;99.90
1800;DHT22;919;48.274;12.292;2022-10-16T13:49:12;25.10;99.90
1800;DHT22;919;48.274;12.292;2022-10-16T13:51:39;25.10;99.90
1800;DHT22;919;48.274;12.292;2022-10-16T13:54:09;25.10;99.90
1800;DHT22;919;48.274;12.292;2022-10-16T13:56:36;25.10;99.90
1800;DHT22;919;48.274;12.292;2022-10-16T13:59:04;25.00;99.90
1800;DHT22;919;48.274;12.292;2022-10-16T14:01:35;25.00;99.90
1800;DHT22;919;48.274;12.292;2022-10-16T14:04:08;24.80;99.90
1800;DHT22;919;48.274;12.292;2022-10-16T14:06:36;24.80;99.90
1800;DHT22;919;48.274;12.292;2022-10-16T14:09:07;24.70;99.90
1800;DHT22;919;48.274;12.292;2022-10-16T14:11:38;24.60;99.90
1800;DHT22;919;48.274;12.292;2022-10-16T14:14:11;24.50;99.90
1800;DHT22;919;48.274;12.292;2022-10-16T14:16:41;24.60;99.90
1800;DHT22;919;48.274;12.292;2022-10-16T14:19:17;24.50;99.90
1800;DHT22;919;48.274;12.292;2022-10-16T14:21:45;24.30;99.90
1800;DHT22;919;48.274;12.292;2022-10-16T14:24:13;24.20;99.90
1800;DHT22;919;48.274;12.292;2022-10-16T14:26:43;24.00;99.90
1800;DHT22;919;48.274;12.292;2022-10-16T14:29:14;23.80;99.90
1800;DHT22;919;48.274;12.292;2022-10-16T14:31:53;23.70;99.90
1800;DHT22;919;48.274;12.292;2022-10-16T14:34:28;23.50;99.90
1800;DHT22;919;48.274;12.292;2022-10-16T14:36:56;23.40;99.90
1800;DHT22;919;48.274;12.292;2022-10-16T14:39:25;23.40;99.90
1800;DHT22;919;48.274;12.292;2022-10-16T14:41:54;23.40;99.90
1800;DHT22;919;48.274;12.292;2022-10-16T14:44:26;23.50;99.90
1800;DHT22;919;48.274;12.292;2022-10-16T14:46:55;23.50;99.90
1800;DHT22;919;48.274;12.292;2022-10-16T14:49:23;23.50;99.90
1800;DHT22;919;48.274;12.292;2022-10-16T14:51:50;23.40;99.90
1800;DHT22;919;48.274;12.292;2022-10-16T14:54:18;23.30;99.90
1800;DHT22;919;48.274;12.292;2022-10-16T14:56:48;23.20;99.90
1800;DHT22;919;48.274;12.292;2022-10-16T14:59:19;23.10;99.90
1800;DHT22;919;48.274;12.292;2022-10-16T15:01:46;23.10;99.90
1800;DHT22;919;48.274;12.292;2022-10-16T15:04:15;23.10;99.90
1800;DHT22;919;48.274;12.292;2022-10-16T15:06:43;23.00;99.90
1800;DHT22;919;48.274;12.292;2022-10-16T15:09:10;23.00;99.90
1800;DHT22;919;48.274;12.292;2022-10-16T15:11:37;23.00;99.90
1800;DHT22;919;48.274;12.292;2022-10-16T15:14:05;22.90;99.90
1800;DHT22;919;48.274;12.292;2022-10-16T15:16:32;22.70;99.90
1800;DHT22;919;48.274;12.292;2022-10-16T15:18:59;22.60;99.90
1800;DHT22;919;48.274;12.292;2022-10-16T15:21:29;22.40;99.90
1800;DHT22;919;48.274;12.292;2022-10-16T15:23:56;22.30;99.90
1800;DHT22;919;48.274;12.292;2022-10-16T15:26:24;22.10;99.90
1800;DHT22;919;48.274;12.292;2022-10-16T15:28:51;21.90;99.90
1800;DHT22;919;48.274;12.292;2022-10-16T15:31:18;21.80;99.90
1800;DHT22;919;48.274;12.292;2022-10-16T15:33:45;21.60;99.90
1800;DHT22;919;48.274;12.292;2022-10-16T15:36:23;21.50;99.90
1800;DHT22;919;48.274;12.292;2022-10-16T15:38:52;21.40;99.90
1800;DHT22;919;48.274;12.292;2022-10-16T15:41:19;21.20;99.90
1800;DHT22;919;48.274;12.292;2022-10-16T15:43:48;21.10;99.90
1800;DHT22;919;48.274;12.292;2022-10-16T15:46:17;20.90;99.90
1800;DHT22;919;48.274;12.292;2022-10-16T15:48:44;20.80;99.90
1800;DHT22;919;48.274;12.292;2022-10-16T15:51:11;20.60;99.90
1800;DHT22;919;48.274;12.292;2022-10-16T15:53:38;20.60;99.90
1800;DHT22;919;48.274;12.292;2022-10-16T15:56:07;20.50;99.90
1800;DHT22;919;48.274;12.292;2022-10-16T15:58:34;20.30;99.90
1800;DHT22;919;48.274;12.292;2022-10-16T16:01:02;20.20;99.90
1800;DHT22;919;48.274;12.292;2022-10-16T16:03:30;20.10;99.90
1800;DHT22;919;48.274;12.292;2022-10-16T16:05:58;20.00;99.90
1800;DHT22;919;48.274;12.292;2022-10-16T16:08:24;19.70;99.90
1800;DHT22;919;48.274;12.292;2022-10-16T16:10:58;19.50;99.90
1800;DHT22;919;48.274;12.292;2022-10-16T16:13:27;19.40;99.90
1800;DHT22;919;48.274;12.292;2022-10-16T16:15:53;19.20;99.90
1800;DHT22;919;48.274;12.292;2022-10-16T16:18:20;19.10;99.90
1800;DHT22;919;48.274;12.292;2022-10-16T16:20:49;18.90;99.90
1800;DHT22;919;48.274;12.292;2022-10-16T16:23:16;18.70;99.90
1800;DHT22;919;48.274;12.292;2022-10-16T16:25:44;18.60;99.90